Terminal Aerodrome Forecast
Issued by NWS Pittsburgh, PA

Current Version | Previous Version | Text Only | Print | Product List | Glossary Off
Versions: 1 2 3 4 5 6 7 8 9 10 11 12 13 14 15 16 17 18 19 20 21 22 23 24 25 26 27 28 29 30 31

000
FTUS41 KPBZ 201722
TAFPIT
TAF
KPIT 201722Z 2018/2124 21012G18KT P6SM SKC
     FM210000 20007KT P6SM SKC
     FM210800 20007KT P6SM SKC WS020/23040KT
     FM211500 21010G18KT P6SM SCT150=

USA.gov is the U.S. government's official web portal to all federal, state and local government web resources and services.